Time;durP1;ratioP1;P1;durP2;ratioP2;P2;SDS_P1;SDS_P2;PMS_P1;PMS_P2;Temp;Humidity;BMP_temperature;BMP_pressure;BME280_temperature;BME280_humidity;BME280_pressure;Samples;Min_cycle;Max_cycle;Signal;HPM_P1;HPM_P2
2021/10/05 00:00:48;;;;;;;7.50;1.48;;;13.60;1.00;;;;;;5034937;28;20045;-74
2021/10/05 00:03:14;;;;;;;7.28;1.65;;;13.70;1.00;;;;;;5035356;28;20535;-74
2021/10/05 00:05:40;;;;;;;5.70;1.40;;;13.70;1.00;;;;;;5035244;28;20038;-74
2021/10/05 00:08:06;;;;;;;4.65;1.50;;;13.70;1.00;;;;;;5035872;28;20436;-74
2021/10/05 00:10:32;;;;;;;4.43;1.40;;;13.70;1.00;;;;;;5034922;28;20512;-74
2021/10/05 00:12:57;;;;;;;5.72;1.10;;;13.70;1.00;;;;;;5035186;28;20072;-74
2021/10/05 00:15:24;;;;;;;7.32;1.35;;;13.70;1.00;;;;;;5035035;28;20067;-75
2021/10/05 00:17:50;;;;;;;3.75;1.00;;;13.80;1.00;;;;;;5035420;28;20131;-74
2021/10/05 00:20:16;;;;;;;4.38;1.45;;;13.70;1.00;;;;;;5035189;28;20120;-74
2021/10/05 00:22:42;;;;;;;3.47;0.95;;;13.60;1.00;;;;;;5034762;28;20144;-74
2021/10/05 00:25:09;;;;;;;5.82;1.45;;;13.40;1.00;;;;;;5034700;28;20140;-74
2021/10/05 00:27:35;;;;;;;3.42;1.23;;;13.30;1.00;;;;;;5035615;28;20041;-74
2021/10/05 00:30:03;;;;;;;2.70;1.33;;;13.30;1.00;;;;;;5035216;28;20037;-74
2021/10/05 00:32:29;;;;;;;6.65;1.80;;;13.40;1.00;;;;;;5034807;28;20034;-74
2021/10/05 00:34:55;;;;;;;6.30;1.50;;;13.50;1.00;;;;;;5034803;28;20099;-74
2021/10/05 00:37:20;;;;;;;7.72;1.60;;;13.50;1.00;;;;;;5035086;28;20040;-74
2021/10/05 00:39:46;;;;;;;3.08;1.17;;;13.50;1.00;;;;;;5034791;28;20050;-74
2021/10/05 00:42:12;;;;;;;3.33;1.17;;;13.50;1.00;;;;;;5034417;28;20096;-74
2021/10/05 00:44:40;;;;;;;6.47;1.40;;;13.40;1.00;;;;;;5034703;28;20038;-74
2021/10/05 00:47:12;;;;;;;7.40;1.40;;;13.40;1.00;;;;;;5034643;28;20037;-74
2021/10/05 00:49:39;;;;;;;5.88;1.52;;;13.30;1.00;;;;;;5034510;28;20040;-74
2021/10/05 00:52:06;;;;;;;4.20;1.33;;;13.20;1.30;;;;;;5034830;28;20045;-74
2021/10/05 00:54:34;;;;;;;4.50;1.38;;;13.10;4.60;;;;;;5034753;28;20045;-74
2021/10/05 00:57:00;;;;;;;4.95;1.40;;;13.00;8.40;;;;;;5034347;28;20033;-74
2021/10/05 00:59:26;;;;;;;3.72;1.40;;;12.80;11.50;;;;;;5034935;28;20037;-74
2021/10/05 01:01:51;;;;;;;3.17;1.48;;;12.80;15.50;;;;;;5034305;28;20041;-74
2021/10/05 01:04:17;;;;;;;2.85;1.30;;;12.70;18.90;;;;;;5034605;28;20500;-74
2021/10/05 01:07:02;;;;;;;3.75;1.50;;;12.60;24.50;;;;;;5034312;28;20047;-74
2021/10/05 01:09:28;;;;;;;6.97;1.60;;;12.50;26.90;;;;;;5034719;28;20548;-74
2021/10/05 01:11:55;;;;;;;5.85;1.50;;;12.40;35.40;;;;;;5034248;28;20038;-74
2021/10/05 01:14:22;;;;;;;4.28;1.90;;;12.30;41.20;;;;;;5034407;28;20068;-74
2021/10/05 01:16:49;;;;;;;8.07;1.30;;;12.30;40.80;;;;;;5034424;28;20037;-74
2021/10/05 01:19:15;;;;;;;5.95;1.50;;;12.30;46.00;;;;;;5034769;28;20045;-74
2021/10/05 01:21:41;;;;;;;7.20;1.67;;;12.20;51.00;;;;;;5034342;28;20033;-74
2021/10/05 01:24:08;;;;;;;5.32;1.27;;;12.20;53.30;;;;;;5034584;28;20111;-74
2021/10/05 01:26:34;;;;;;;3.92;1.40;;;12.20;55.40;;;;;;5034412;28;20083;-74
2021/10/05 01:29:02;;;;;;;9.95;1.52;;;12.10;53.10;;;;;;5034453;28;20045;-74
2021/10/05 01:31:39;;;;;;;7.95;1.75;;;12.10;60.70;;;;;;5033788;28;20037;-74
2021/10/05 01:34:06;;;;;;;4.13;1.35;;;12.00;65.20;;;;;;5033955;28;20042;-74
2021/10/05 01:36:32;;;;;;;10.43;1.58;;;11.90;73.90;;;;;;5034050;28;20239;-74
2021/10/05 01:38:58;;;;;;;4.70;1.60;;;11.90;73.30;;;;;;5034277;28;20172;-74
2021/10/05 01:41:24;;;;;;;6.40;1.50;;;11.80;83.10;;;;;;5033947;28;20495;-74
2021/10/05 01:43:50;;;;;;;4.82;1.50;;;11.90;80.30;;;;;;5033288;28;20057;-74
2021/10/05 01:46:15;;;;;;;4.70;1.42;;;11.80;74.60;;;;;;5033753;28;20021;-74
2021/10/05 01:48:42;;;;;;;6.43;1.48;;;11.80;81.80;;;;;;5034202;28;20119;-74
2021/10/05 01:51:09;;;;;;;5.82;1.38;;;11.80;90.10;;;;;;5033884;28;20038;-74
2021/10/05 01:53:35;;;;;;;7.80;1.88;;;11.70;83.30;;;;;;5035823;28;20141;-74
2021/10/05 01:56:02;;;;;;;6.05;1.50;;;11.60;92.50;;;;;;5037494;28;20045;-74
2021/10/05 01:58:28;;;;;;;6.32;1.52;;;11.70;90.10;;;;;;5037146;28;20382;-74
2021/10/05 02:00:54;;;;;;;7.28;1.80;;;11.70;92.10;;;;;;5036950;28;20045;-74
2021/10/05 02:03:20;;;;;;;7.90;1.80;;;11.60;90.20;;;;;;5037582;28;20052;-74
2021/10/05 02:05:46;;;;;;;6.80;2.03;;;11.70;95.90;;;;;;5036956;28;20041;-74
2021/10/05 02:08:14;;;;;;;6.10;1.70;;;11.70;91.10;;;;;;5037569;28;20045;-74
2021/10/05 02:10:40;;;;;;;4.93;1.52;;;11.70;93.30;;;;;;5036877;28;20120;-74
2021/10/05 02:13:06;;;;;;;7.20;1.48;;;11.60;88.50;;;;;;5037574;28;20121;-74
2021/10/05 02:15:33;;;;;;;3.72;1.60;;;11.60;94.60;;;;;;5036647;28;20072;-74
2021/10/05 02:17:59;;;;;;;5.05;1.50;;;11.60;92.20;;;;;;5037662;28;20042;-74
2021/10/05 02:20:25;;;;;;;6.35;1.70;;;11.60;94.80;;;;;;5037203;28;20476;-74
2021/10/05 02:22:51;;;;;;;7.13;1.73;;;11.50;93.80;;;;;;5036947;28;20045;-74
2021/10/05 02:25:17;;;;;;;6.80;2.00;;;11.50;95.50;;;;;;5036896;28;20045;-74
2021/10/05 02:27:43;;;;;;;6.25;1.58;;;11.40;93.90;;;;;;5019451;28;20428;-74
2021/10/05 02:30:10;;;;;;;9.90;1.60;;;11.30;98.50;;;;;;5036659;28;20138;-74
2021/10/05 02:32:35;;;;;;;5.32;1.65;;;11.30;99.90;;;;;;5036354;28;20119;-74
2021/10/05 02:35:02;;;;;;;5.20;1.67;;;11.30;98.00;;;;;;5036875;28;20080;-74
2021/10/05 02:37:30;;;;;;;5.63;1.92;;;11.30;99.90;;;;;;5037253;28;20050;-74
2021/10/05 02:39:57;;;;;;;8.48;1.88;;;11.20;93.80;;;;;;5036300;28;20115;-74
2021/10/05 02:42:24;;;;;;;8.15;2.10;;;11.10;97.60;;;;;;5036377;28;20057;-74
2021/10/05 02:44:50;;;;;;;5.28;1.80;;;11.00;99.90;;;;;;5036295;28;20041;-74
2021/10/05 02:47:15;;;;;;;7.07;1.83;;;11.00;99.90;;;;;;5036500;28;20037;-74
2021/10/05 02:49:44;;;;;;;4.68;1.50;;;10.90;99.90;;;;;;5036152;28;20091;-74
2021/10/05 02:52:15;;;;;;;5.57;1.70;;;10.90;99.90;;;;;;5036424;28;20056;-74
2021/10/05 02:54:42;;;;;;;;;;;10.90;99.90;;;;;;5036675;28;20566;-74
2021/10/05 02:57:08;;;;;;;10.43;2.38;;;10.80;99.90;;;;;;5036051;28;19935;-74
2021/10/05 02:59:34;;;;;;;9.43;1.73;;;10.80;99.90;;;;;;5036279;28;20045;-71
2021/10/05 03:02:00;;;;;;;4.68;1.77;;;10.80;99.90;;;;;;5035744;28;20037;-71
2021/10/05 03:04:28;;;;;;;6.97;1.88;;;10.80;99.90;;;;;;5035855;28;20041;-73
2021/10/05 03:06:54;;;;;;;3.08;1.65;;;10.90;99.90;;;;;;5036160;28;20041;-74
2021/10/05 03:09:19;;;;;;;5.45;1.70;;;10.80;99.90;;;;;;5036594;28;20117;-74
2021/10/05 03:11:45;;;;;;;8.48;1.92;;;10.80;99.90;;;;;;5036598;28;20042;-74
2021/10/05 03:14:11;;;;;;;5.78;2.08;;;10.90;99.90;;;;;;5035851;28;20103;-73
2021/10/05 03:16:37;;;;;;;6.32;2.00;;;11.00;99.90;;;;;;5035521;28;20106;-74
2021/10/05 03:19:03;;;;;;;11.20;2.38;;;10.90;99.90;;;;;;5035954;28;20040;-74
2021/10/05 03:21:29;;;;;;;6.68;1.90;;;10.80;99.80;;;;;;5035884;28;20388;-74
2021/10/05 03:23:54;;;;;;;3.85;1.58;;;10.80;99.90;;;;;;5035805;28;20047;-74
2021/10/05 03:26:20;;;;;;;6.05;1.95;;;10.80;99.90;;;;;;5036294;28;20124;-74
2021/10/05 03:28:47;;;;;;;5.38;1.45;;;10.70;99.90;;;;;;5036004;28;20038;-74
2021/10/05 03:31:13;;;;;;;6.07;2.08;;;10.80;98.90;;;;;;5035522;28;20041;-74
2021/10/05 03:33:40;;;;;;;6.55;1.80;;;10.80;99.90;;;;;;5035508;28;20079;-73
2021/10/05 03:36:06;;;;;;;5.38;1.80;;;10.80;95.90;;;;;;5035606;28;20041;-74
2021/10/05 03:38:33;;;;;;;7.57;2.35;;;10.70;98.20;;;;;;5035793;28;20060;-74
2021/10/05 03:40:59;;;;;;;6.25;1.80;;;10.70;99.90;;;;;;5035437;28;20033;-74
2021/10/05 03:43:25;;;;;;;5.43;1.80;;;10.60;99.90;;;;;;5035515;28;20131;-73
2021/10/05 03:45:51;;;;;;;8.00;2.20;;;10.60;99.90;;;;;;5034923;28;20072;-74
2021/10/05 03:48:18;;;;;;;20.58;18.75;;;10.50;99.90;;;;;;5034768;28;20044;-73
2021/10/05 03:50:45;;;;;;;5.63;2.67;;;10.40;99.50;;;;;;5035428;28;20065;-73
2021/10/05 03:53:19;;;;;;;4.70;1.70;;;10.40;99.90;;;;;;5026107;28;20513;-74
2021/10/05 03:55:52;;;;;;;5.50;2.15;;;10.40;99.90;;;;;;5014639;28;20560;-74
2021/10/05 03:58:18;;;;;;;7.57;2.03;;;10.30;99.90;;;;;;5019881;28;20046;-73
2021/10/05 04:00:45;;;;;;;6.45;1.88;;;10.20;99.90;;;;;;5013906;28;20398;-74
2021/10/05 04:03:11;;;;;;;5.43;2.00;;;10.20;99.90;;;;;;5013843;28;20038;-74
2021/10/05 04:05:37;;;;;;;5.00;1.70;;;10.20;99.90;;;;;;5014617;28;20172;-74
2021/10/05 04:08:03;;;;;;;8.10;2.53;;;10.20;99.90;;;;;;5014554;28;20050;-74
2021/10/05 04:10:29;;;;;;;9.25;1.80;;;10.20;99.90;;;;;;5013930;28;20103;-74
2021/10/05 04:12:55;;;;;;;7.78;2.50;;;10.20;99.90;;;;;;5014618;28;20044;-74
2021/10/05 04:15:21;;;;;;;6.40;1.90;;;10.20;99.90;;;;;;5013665;28;20050;-74
2021/10/05 04:17:47;;;;;;;8.73;2.13;;;10.20;98.40;;;;;;5015418;28;20041;-74
2021/10/05 04:20:13;;;;;;;8.38;2.20;;;10.10;99.90;;;;;;5014762;28;20045;-73
2021/10/05 04:22:40;;;;;;;5.88;1.80;;;10.00;99.90;;;;;;5014648;28;20038;-73
2021/10/05 04:25:13;;;;;;;5.57;1.77;;;10.00;99.90;;;;;;5013848;28;20045;-75
2021/10/05 04:27:39;;;;;;;10.48;2.35;;;10.00;99.90;;;;;;5014543;28;20073;-75
2021/10/05 04:30:10;;;;;;;6.90;1.98;;;10.00;79.90;;;;;;5013645;28;20045;-73
2021/10/05 04:32:36;;;;;;;8.50;2.10;;;9.90;96.30;;;;;;5014608;28;20080;-74
2021/10/05 04:35:03;;;;;;;4.22;1.80;;;9.90;99.90;;;;;;5014721;28;20057;-74
2021/10/05 04:37:30;;;;;;;3.22;1.60;;;9.90;95.80;;;;;;5015107;28;20455;-74
2021/10/05 04:39:56;;;;;;;10.57;2.00;;;9.90;99.90;;;;;;5014490;28;20026;-74
2021/10/05 04:42:24;;;;;;;5.35;1.73;;;9.90;99.20;;;;;;4997163;28;20058;-74
2021/10/05 04:44:50;;;;;;;8.30;1.90;;;9.80;98.50;;;;;;5014792;28;20037;-74
2021/10/05 04:47:16;;;;;;;4.57;2.10;;;9.80;99.90;;;;;;5014592;28;20128;-74
2021/10/05 04:49:42;;;;;;;9.48;2.50;;;9.90;99.90;;;;;;4997655;28;20519;-74
2021/10/05 04:52:08;;;;;;;7.95;2.08;;;9.80;99.90;;;;;;5014949;28;20396;-74
2021/10/05 04:54:34;;;;;;;4.57;1.80;;;9.90;99.30;;;;;;5014810;28;20111;-74
2021/10/05 04:57:00;;;;;;;4.13;1.98;;;9.80;99.90;;;;;;5014823;28;20125;-73
2021/10/05 04:59:26;;;;;;;8.45;2.38;;;9.80;95.30;;;;;;5014869;28;20532;-74
2021/10/05 05:01:51;;;;;;;4.70;1.45;;;9.80;95.20;;;;;;5014521;28;20042;-74
2021/10/05 05:04:17;;;;;;;4.13;1.73;;;9.80;79.60;;;;;;5014744;28;20042;-73
2021/10/05 05:06:44;;;;;;;8.05;1.65;;;9.70;90.00;;;;;;4997215;28;20030;-75
2021/10/05 05:09:10;;;;;;;5.53;2.05;;;9.80;90.80;;;;;;5014534;28;20410;-73
2021/10/05 05:11:39;;;;;;;7.68;2.00;;;9.70;84.00;;;;;;5014507;28;20096;-73
2021/10/05 05:14:08;;;;;;;5.28;1.65;;;9.70;94.00;;;;;;5014673;28;20046;-74
2021/10/05 05:16:35;;;;;;;5.13;1.85;;;9.60;94.10;;;;;;5013663;28;20041;-74
2021/10/05 05:19:01;;;;;;;5.15;1.90;;;9.70;94.60;;;;;;4996785;28;20044;-74
2021/10/05 05:21:27;;;;;;;6.80;1.90;;;9.60;94.90;;;;;;5015247;28;20093;-73
2021/10/05 05:23:53;;;;;;;10.30;1.73;;;9.60;95.90;;;;;;5014847;28;20036;-74
2021/10/05 05:26:19;;;;;;;2.72;1.55;;;9.60;93.00;;;;;;5015064;28;20038;-74
2021/10/05 05:28:45;;;;;;;5.18;1.80;;;9.70;88.60;;;;;;5018723;28;20038;-73
2021/10/05 05:31:11;;;;;;;7.55;1.58;;;9.60;84.30;;;;;;5018251;28;20099;-74
2021/10/05 05:33:37;;;;;;;8.48;1.98;;;9.60;80.50;;;;;;5018540;28;20544;-73
2021/10/05 05:36:03;;;;;;;4.40;1.60;;;9.60;82.80;;;;;;5018303;28;20042;-73
2021/10/05 05:38:29;;;;;;;5.10;1.65;;;9.70;90.10;;;;;;5018686;28;20041;-73
2021/10/05 05:40:54;;;;;;;5.38;1.75;;;9.90;76.60;;;;;;5017713;28;20029;-74
2021/10/05 05:43:20;;;;;;;3.80;1.70;;;9.90;59.90;;;;;;5018692;28;20532;-74
2021/10/05 05:45:47;;;;;;;6.03;1.80;;;9.90;68.90;;;;;;5018034;28;20113;-74
2021/10/05 05:48:12;;;;;;;8.13;2.00;;;10.00;62.90;;;;;;5018617;28;20072;-74
2021/10/05 05:50:38;;;;;;;4.75;1.58;;;10.10;40.00;;;;;;5018108;28;20089;-74
2021/10/05 05:53:04;;;;;;;2.38;1.42;;;10.10;51.00;;;;;;5018000;28;20046;-74
2021/10/05 05:55:30;;;;;;;6.78;2.13;;;10.10;46.60;;;;;;5017967;28;20041;-74
2021/10/05 05:57:56;;;;;;;7.80;2.10;;;10.00;43.70;;;;;;5018611;28;20061;-74
2021/10/05 06:00:22;;;;;;;7.32;2.00;;;9.90;46.70;;;;;;5017932;28;20058;-74
2021/10/05 06:02:48;;;;;;;5.35;1.90;;;9.90;59.50;;;;;;5017493;28;20038;-74
2021/10/05 06:05:15;;;;;;;8.18;1.58;;;10.10;58.30;;;;;;5018014;28;20033;-74
2021/10/05 06:07:40;;;;;;;5.40;3.40;;;10.10;52.10;;;;;;5018085;28;20569;-74
2021/10/05 06:10:08;;;;;;;3.90;1.95;;;10.00;52.80;;;;;;5017430;28;20046;-74
2021/10/05 06:12:40;;;;;;;3.53;1.65;;;9.90;63.60;;;;;;5017947;28;20041;-74
2021/10/05 06:15:08;;;;;;;5.43;1.63;;;10.00;67.70;;;;;;5017898;28;20052;-74
2021/10/05 06:17:39;;;;;;;4.65;1.60;;;10.10;50.60;;;;;;5017163;28;20048;-74
2021/10/05 06:20:09;;;;;;;4.60;1.17;;;10.10;39.90;;;;;;5016950;28;20034;-74
2021/10/05 06:22:36;;;;;;;9.63;1.50;;;10.20;38.40;;;;;;5000490;28;20385;-74
2021/10/05 06:25:06;;;;;;;4.85;2.00;;;10.30;43.70;;;;;;5017429;28;20045;-74
2021/10/05 06:27:32;;;;;;;3.72;1.38;;;10.60;36.70;;;;;;5017993;28;20064;-74
2021/10/05 06:29:58;;;;;;;4.47;2.10;;;10.70;25.30;;;;;;5017386;28;20041;-74
2021/10/05 06:32:25;;;;;;;7.63;1.77;;;10.80;22.30;;;;;;5016994;28;20049;-74
2021/10/05 06:34:52;;;;;;;1.95;1.45;;;10.70;23.70;;;;;;5017525;28;20128;-74
2021/10/05 06:37:18;;;;;;;5.03;1.80;;;10.70;28.30;;;;;;5017265;28;20049;-74
2021/10/05 06:39:44;;;;;;;5.03;1.58;;;10.70;36.40;;;;;;5016845;28;20038;-74
2021/10/05 06:42:10;;;;;;;3.28;1.85;;;10.80;34.10;;;;;;5016691;28;20045;-74
2021/10/05 06:44:35;;;;;;;4.20;1.58;;;10.80;34.20;;;;;;5016748;28;20118;-74
2021/10/05 06:47:01;;;;;;;4.28;1.60;;;11.00;32.10;;;;;;4998982;28;20034;-74
2021/10/05 06:49:27;;;;;;;5.05;1.73;;;11.30;24.10;;;;;;5016077;28;20096;-74
2021/10/05 06:51:56;;;;;;;7.72;1.85;;;11.50;16.10;;;;;;5016308;28;20049;-75
2021/10/05 06:54:22;;;;;;;5.38;1.52;;;11.50;10.60;;;;;;5016480;28;20523;-74
2021/10/05 06:56:48;;;;;;;5.90;1.88;;;11.40;5.10;;;;;;5015749;28;20046;-74
2021/10/05 06:59:14;;;;;;;5.82;1.90;;;11.40;14.10;;;;;;5015382;28;20036;-74
2021/10/05 07:01:41;;;;;;;6.70;1.92;;;11.40;16.90;;;;;;5015182;28;20073;-74
2021/10/05 07:04:07;;;;;;;5.63;3.35;;;11.40;15.30;;;;;;5023386;28;20088;-74
2021/10/05 07:06:32;;;;;;;12.25;6.68;;;11.40;8.70;;;;;;5023003;28;20560;-74
2021/10/05 07:08:58;;;;;;;11.50;5.78;;;11.30;12.70;;;;;;5016363;28;20116;-74
2021/10/05 07:11:24;;;;;;;11.23;6.72;;;11.20;16.90;;;;;;5016173;28;20049;-74
2021/10/05 07:13:50;;;;;;;6.78;4.80;;;11.50;17.50;;;;;;5016248;28;20125;-74
2021/10/05 07:16:18;;;;;;;7.15;4.60;;;11.50;12.80;;;;;;5012417;28;20225;-75
2021/10/05 07:18:44;;;;;;;8.63;5.65;;;11.80;8.50;;;;;;5012918;28;20041;-74
2021/10/05 07:21:14;;;;;;;10.98;4.55;;;11.90;6.30;;;;;;5014634;28;20045;-75
2021/10/05 07:23:43;;;;;;;6.28;3.33;;;12.10;6.30;;;;;;5015012;28;20053;-75
2021/10/05 07:26:09;;;;;;;7.15;2.72;;;12.30;1.00;;;;;;4997984;28;20072;-74
2021/10/05 07:28:35;;;;;;;5.35;2.17;;;12.50;1.00;;;;;;4997141;28;20069;-74
2021/10/05 07:31:03;;;;;;;5.05;2.00;;;12.70;1.00;;;;;;4997841;28;20034;-75
2021/10/05 07:33:32;;;;;;;5.78;1.63;;;12.70;1.00;;;;;;5014968;28;20052;-74
2021/10/05 07:35:58;;;;;;;8.30;2.40;;;12.70;1.00;;;;;;5014738;28;20045;-75
2021/10/05 07:38:24;;;;;;;8.73;1.60;;;12.60;1.00;;;;;;5014179;28;20042;-75
2021/10/05 07:40:49;;;;;;;6.90;1.48;;;12.40;1.00;;;;;;5015311;28;20041;-75
2021/10/05 07:43:15;;;;;;;4.47;1.20;;;12.30;4.50;;;;;;4997252;28;20497;-74
2021/10/05 07:45:42;;;;;;;2.90;1.30;;;12.20;4.20;;;;;;5015579;28;20398;-75
2021/10/05 07:48:08;;;;;;;4.13;1.30;;;12.30;7.20;;;;;;5015982;28;20046;-74
2021/10/05 07:50:35;;;;;;;3.40;1.40;;;12.50;1.00;;;;;;5014585;28;20041;-75
2021/10/05 07:53:02;;;;;;;2.92;1.45;;;12.70;1.00;;;;;;5015599;28;20042;-76
2021/10/05 07:55:29;;;;;;;3.75;1.40;;;13.00;1.00;;;;;;5015309;28;20042;-76
2021/10/05 07:57:56;;;;;;;5.05;1.60;;;13.00;1.00;;;;;;5014612;28;20046;-77
2021/10/05 08:00:22;;;;;;;7.00;1.30;;;13.10;1.00;;;;;;5015181;28;20056;-77
2021/10/05 08:02:48;;;;;;;3.22;1.13;;;13.30;1.00;;;;;;5015562;28;20108;-76
2021/10/05 08:05:16;;;;;;;6.28;1.42;;;13.60;1.00;;;;;;4997489;28;20050;-76
2021/10/05 08:07:46;;;;;;;5.50;1.13;;;13.70;1.00;;;;;;5015217;28;20461;-76
2021/10/05 08:10:13;;;;;;;4.97;1.50;;;13.70;1.00;;;;;;4997185;28;20038;-75
2021/10/05 08:12:44;;;;;;;4.63;1.20;;;13.70;1.00;;;;;;5015467;28;20033;-76
2021/10/05 08:15:10;;;;;;;4.95;1.40;;;13.60;1.00;;;;;;5013691;28;20048;-75
2021/10/05 08:17:36;;;;;;;5.47;1.00;;;13.70;1.00;;;;;;5013188;28;20046;-75
2021/10/05 08:20:03;;;;;;;2.40;1.35;;;13.90;1.00;;;;;;5015370;28;20129;-74
2021/10/05 08:22:29;;;;;;;5.07;1.10;;;13.90;1.00;;;;;;5021311;28;20076;-74
2021/10/05 08:24:55;;;;;;;2.42;1.45;;;14.00;1.00;;;;;;5034665;28;20045;-74
2021/10/05 08:27:21;;;;;;;5.90;1.25;;;14.30;1.00;;;;;;5035051;28;20037;-74
2021/10/05 08:29:48;;;;;;;5.40;1.60;;;14.50;1.00;;;;;;5034656;28;20049;-74
2021/10/05 08:32:15;;;;;;;5.97;1.20;;;14.60;1.00;;;;;;5034679;28;20079;-74
2021/10/05 08:34:41;;;;;;;7.35;1.83;;;14.80;1.00;;;;;;5034531;28;20496;-74
2021/10/05 08:37:07;;;;;;;3.88;1.23;;;15.00;1.00;;;;;;5034855;28;20131;-74
2021/10/05 08:39:33;;;;;;;3.78;1.52;;;15.40;1.00;;;;;;5034273;28;20124;-74
2021/10/05 08:42:01;;;;;;;4.70;1.27;;;15.70;1.00;;;;;;5017155;28;20030;-74
2021/10/05 08:44:27;;;;;;;7.25;1.20;;;15.60;1.00;;;;;;5034250;28;20037;-74
2021/10/05 08:46:54;;;;;;;2.88;1.27;;;15.40;1.00;;;;;;5034062;28;20114;-74
2021/10/05 08:49:22;;;;;;;4.05;1.40;;;15.20;1.00;;;;;;5016572;28;20484;-74
2021/10/05 08:51:49;;;;;;;7.60;1.60;;;15.40;1.00;;;;;;5034409;28;20037;-74
2021/10/05 08:54:18;;;;;;;4.63;1.40;;;15.50;1.00;;;;;;5034169;28;20050;-74
2021/10/05 08:56:45;;;;;;;5.78;1.13;;;15.40;1.00;;;;;;5016847;28;20077;-74
2021/10/05 08:59:12;;;;;;;4.43;1.20;;;15.40;1.00;;;;;;5016851;28;20488;-74
2021/10/05 09:01:38;;;;;;;5.55;1.45;;;15.40;1.00;;;;;;5035180;28;20104;-74
2021/10/05 09:04:05;;;;;;;6.50;1.30;;;15.50;1.00;;;;;;5038248;28;20505;-74
2021/10/05 09:06:38;;;;;;;4.53;1.00;;;15.50;1.00;;;;;;5038362;28;20037;-74
2021/10/05 09:09:05;;;;;;;4.85;1.00;;;15.50;1.00;;;;;;5020496;28;20467;-73
2021/10/05 09:11:43;;;;;;;3.30;1.23;;;15.50;1.00;;;;;;5020439;28;20117;-74
2021/10/05 09:14:09;;;;;;;4.25;0.95;;;15.50;1.00;;;;;;5038021;28;20045;-73
2021/10/05 09:16:36;;;;;;;4.78;1.13;;;15.60;1.00;;;;;;5038041;28;20037;-73
2021/10/05 09:19:04;;;;;;;5.20;1.17;;;15.70;1.00;;;;;;5037848;28;20072;-73
2021/10/05 09:21:34;;;;;;;5.85;1.27;;;15.80;1.00;;;;;;5037831;28;20538;-72
2021/10/05 09:24:05;;;;;;;3.55;1.17;;;16.20;1.00;;;;;;5038136;28;20049;-72
2021/10/05 09:26:49;;;;;;;4.05;1.10;;;16.30;1.00;;;;;;5037687;28;20030;-73
2021/10/05 09:29:28;;;;;;;3.03;0.82;;;16.40;1.00;;;;;;5036972;28;20099;-73
2021/10/05 09:31:58;;;;;;;2.45;0.80;;;16.40;1.00;;;;;;5037741;28;20029;-73
2021/10/05 09:34:34;;;;;;;3.45;0.70;;;16.60;1.00;;;;;;5037566;28;20055;-72
2021/10/05 09:37:09;;;;;;;3.40;0.95;;;16.70;1.00;;;;;;5037616;28;20038;-72
2021/10/05 09:39:40;;;;;;;4.10;1.10;;;16.60;1.00;;;;;;5037813;28;20041;-73
2021/10/05 09:42:06;;;;;;;3.08;1.08;;;16.50;1.00;;;;;;5037311;28;20053;-73
2021/10/05 09:44:31;;;;;;;3.90;0.80;;;16.60;1.00;;;;;;5037995;28;20040;-73
2021/10/05 09:46:58;;;;;;;5.05;0.90;;;16.80;1.00;;;;;;5037234;28;20041;-73
2021/10/05 09:49:24;;;;;;;1.48;0.88;;;17.20;1.00;;;;;;5038107;28;20047;-73
2021/10/05 09:52:01;;;;;;;2.50;0.70;;;17.40;1.00;;;;;;5037247;28;20517;-73
2021/10/05 09:54:28;;;;;;;6.95;0.90;;;17.80;1.00;;;;;;5037488;28;20072;-73
2021/10/05 09:56:54;;;;;;;2.55;0.70;;;18.00;1.00;;;;;;5037342;28;20045;-73
2021/10/05 09:59:21;;;;;;;2.58;0.47;;;18.10;1.00;;;;;;5037457;28;20063;-73
2021/10/05 10:01:47;;;;;;;0.70;0.40;;;18.10;1.00;;;;;;5037532;28;20049;-73
2021/10/05 10:04:14;;;;;;;1.25;0.43;;;17.80;1.00;;;;;;5037591;28;20052;-73
2021/10/05 10:06:41;;;;;;;0.90;0.40;;;17.70;1.00;;;;;;5037321;28;20550;-73
2021/10/05 10:09:07;;;;;;;0.85;0.40;;;17.60;1.00;;;;;;5037566;28;20045;-73
2021/10/05 10:11:34;;;;;;;1.20;0.43;;;17.80;1.00;;;;;;5037537;28;20046;-73
2021/10/05 10:14:01;;;;;;;1.13;0.47;;;17.90;1.00;;;;;;5035883;28;20048;-73
2021/10/05 10:16:27;;;;;;;1.05;0.55;;;18.10;1.00;;;;;;5036777;28;20373;-70
2021/10/05 10:18:58;;;;;;;1.02;0.50;;;18.10;1.00;;;;;;5036829;28;20033;-71
2021/10/05 10:21:33;;;;;;;2.15;0.43;;;17.90;1.00;;;;;;5036480;28;20048;-70
2021/10/05 10:24:13;;;;;;;1.23;0.47;;;17.80;1.00;;;;;;5036988;28;20037;-71
2021/10/05 10:26:44;;;;;;;2.43;0.50;;;18.00;1.00;;;;;;5037564;28;20041;-71
2021/10/05 10:29:14;;;;;;;0.73;0.50;;;18.10;1.00;;;;;;5037169;28;20338;-70
2021/10/05 10:31:41;;;;;;;1.13;0.40;;;17.90;1.00;;;;;;5036985;28;20037;-70
2021/10/05 10:34:19;;;;;;;1.65;0.40;;;17.70;1.00;;;;;;5036335;28;20045;-70
2021/10/05 10:36:45;;;;;;;1.17;0.50;;;17.70;1.00;;;;;;5036838;28;20435;-70
2021/10/05 10:39:19;;;;;;;1.17;0.73;;;17.90;1.00;;;;;;5036463;28;20038;-70
2021/10/05 10:41:54;;;;;;;2.50;0.70;;;18.00;1.00;;;;;;5036763;28;20033;-71
2021/10/05 10:44:36;;;;;;;1.48;0.80;;;18.00;1.00;;;;;;5036843;28;20047;-71
2021/10/05 10:47:16;;;;;;;2.97;0.82;;;18.00;1.00;;;;;;5037005;28;20037;-72
2021/10/05 10:50:02;;;;;;;1.63;0.60;;;18.00;1.00;;;;;;5037256;28;20034;-73
2021/10/05 10:52:34;;;;;;;0.60;0.32;;;18.10;1.00;;;;;;5037049;28;20026;-73
2021/10/05 10:55:00;;;;;;;0.70;0.43;;;17.90;1.00;;;;;;5036712;28;20041;-73
2021/10/05 10:57:44;;;;;;;1.20;0.68;;;18.20;1.00;;;;;;5036684;28;20040;-73
2021/10/05 11:00:23;;;;;;;2.40;0.65;;;18.40;1.00;;;;;;5036627;28;20041;-70
2021/10/05 11:02:53;;;;;;;3.53;0.40;;;18.20;1.00;;;;;;5036666;28;20119;-71
2021/10/05 11:05:22;;;;;;;1.92;0.50;;;18.10;1.00;;;;;;5036393;28;20043;-73
2021/10/05 11:07:53;;;;;;;3.22;0.70;;;18.00;1.00;;;;;;5037269;28;20040;-71
2021/10/05 11:10:39;;;;;;;2.70;0.60;;;18.10;1.00;;;;;;5037041;28;20052;-71
2021/10/05 11:13:07;;;;;;;0.73;0.40;;;18.20;1.00;;;;;;5035889;28;20069;-71
2021/10/05 11:15:45;;;;;;;1.65;0.57;;;18.40;1.00;;;;;;5035913;28;20056;-70
2021/10/05 11:18:13;;;;;;;1.98;0.70;;;18.40;1.00;;;;;;5036159;28;20064;-71
2021/10/05 11:20:47;;;;;;;1.73;0.65;;;18.50;1.00;;;;;;5036167;28;20068;-73
2021/10/05 11:23:15;;;;;;;1.60;0.60;;;18.10;1.00;;;;;;5036519;28;20036;-71
2021/10/05 11:25:55;;;;;;;1.27;0.47;;;18.20;1.00;;;;;;5035961;28;20455;-73
2021/10/05 11:28:27;;;;;;;2.92;0.45;;;18.30;1.00;;;;;;5036661;28;20129;-70
2021/10/05 11:31:00;;;;;;;1.65;0.60;;;18.10;1.00;;;;;;5035798;28;20156;-71
2021/10/05 11:33:35;;;;;;;0.82;0.50;;;18.00;1.00;;;;;;5036171;28;20037;-70
2021/10/05 11:36:12;;;;;;;2.10;0.50;;;17.80;1.00;;;;;;5036070;28;20041;-71
2021/10/05 11:38:48;;;;;;;1.38;0.50;;;17.60;1.00;;;;;;5035833;28;20076;-70
2021/10/05 11:41:14;;;;;;;1.75;0.57;;;17.60;1.00;;;;;;5035854;28;20037;-71
2021/10/05 11:43:52;;;;;;;1.38;0.40;;;17.30;1.00;;;;;;5036435;28;20045;-70
2021/10/05 11:46:23;;;;;;;3.55;0.85;;;17.30;1.00;;;;;;5035539;28;20037;-70
2021/10/05 11:48:56;;;;;;;3.22;0.75;;;17.30;1.00;;;;;;5035720;28;20052;-70
2021/10/05 11:51:25;;;;;;;1.30;0.40;;;17.30;1.00;;;;;;5035342;28;20036;-70
2021/10/05 11:53:52;;;;;;;1.02;0.60;;;17.40;1.00;;;;;;5035242;28;20045;-70
2021/10/05 11:56:20;;;;;;;1.27;0.70;;;17.50;1.00;;;;;;5035013;28;20081;-70
2021/10/05 11:58:49;;;;;;;1.35;0.50;;;17.80;1.00;;;;;;5035608;28;20080;-70
2021/10/05 12:01:25;;;;;;;1.02;0.40;;;17.80;1.00;;;;;;5035018;28;20118;-70
2021/10/05 12:04:11;;;;;;;1.45;0.60;;;17.90;1.00;;;;;;5035210;28;20083;-70
2021/10/05 12:06:40;;;;;;;1.95;0.50;;;18.00;1.00;;;;;;5034644;28;20043;-70
2021/10/05 12:09:08;;;;;;;1.30;0.50;;;18.10;1.00;;;;;;5034860;28;20127;-70
2021/10/05 12:11:45;;;;;;;1.63;0.60;;;17.90;1.00;;;;;;5034994;28;20045;-70
2021/10/05 12:14:15;;;;;;;2.17;0.70;;;17.80;1.00;;;;;;5035395;28;20128;-70
2021/10/05 12:17:02;;;;;;;1.25;0.40;;;17.50;1.00;;;;;;5034478;28;20052;-70
2021/10/05 12:19:36;;;;;;;1.05;0.40;;;17.40;1.00;;;;;;5034593;28;20048;-70
2021/10/05 12:22:07;;;;;;;0.38;0.38;;;17.30;1.00;;;;;;5034832;28;20124;-70
2021/10/05 12:24:37;;;;;;;;;;;17.50;1.00;;;;;;5017673;28;20396;-70
2021/10/05 12:27:04;;;;;;;0.35;0.35;;;17.50;1.00;;;;;;5035166;28;19998;-70
2021/10/05 12:29:30;;;;;;;1.30;0.70;;;17.60;1.00;;;;;;5035062;28;20041;-70
2021/10/05 12:31:57;;;;;;;0.40;0.30;;;17.80;1.00;;;;;;5034198;28;20034;-70
2021/10/05 12:34:38;;;;;;;0.82;0.30;;;17.70;1.00;;;;;;5034334;28;20077;-70
2021/10/05 12:37:06;;;;;;;0.60;0.30;;;17.60;1.00;;;;;;5033823;28;20160;-70
2021/10/05 12:39:32;;;;;;;0.38;0.30;;;17.50;1.00;;;;;;5034689;28;20171;-70
2021/10/05 12:42:02;;;;;;;0.80;0.40;;;17.50;1.00;;;;;;5034835;28;20065;-70
2021/10/05 12:44:34;;;;;;;0.30;0.25;;;17.60;1.00;;;;;;5034807;28;20134;-70
2021/10/05 12:47:08;;;;;;;0.75;0.40;;;17.90;1.00;;;;;;5012632;28;20405;-71
2021/10/05 12:49:35;;;;;;;1.17;0.30;;;18.00;1.00;;;;;;5000369;28;20034;-74
2021/10/05 12:52:03;;;;;;;0.40;0.30;;;18.10;1.00;;;;;;5008651;28;20057;-73
2021/10/05 12:54:29;;;;;;;0.98;0.47;;;18.00;1.00;;;;;;5002950;28;20049;-74
2021/10/05 12:56:58;;;;;;;1.40;0.60;;;17.90;1.00;;;;;;4995512;28;20041;-74